sensor_id;sensor_type;location;lat;lon;timestamp;temperature;humidity
46117;DHT22;32591;48.102;11.772;2023-08-08T00:02:06;12.20;99.90
46117;DHT22;32591;48.102;11.772;2023-08-08T00:04:33;12.20;99.90
46117;DHT22;32591;48.102;11.772;2023-08-08T00:07:02;12.20;99.90
46117;DHT22;32591;48.102;11.772;2023-08-08T00:09:29;12.20;99.90
46117;DHT22;32591;48.102;11.772;2023-08-08T00:11:56;12.30;99.90
46117;DHT22;32591;48.102;11.772;2023-08-08T00:14:24;12.30;99.90
46117;DHT22;32591;48.102;11.772;2023-08-08T00:16:51;12.40;99.90
46117;DHT22;32591;48.102;11.772;2023-08-08T00:19:18;12.40;99.90
46117;DHT22;32591;48.102;11.772;2023-08-08T00:21:45;12.40;99.90
46117;DHT22;32591;48.102;11.772;2023-08-08T00:24:14;12.40;99.90
46117;DHT22;32591;48.102;11.772;2023-08-08T00:26:41;12.50;99.90
46117;DHT22;32591;48.102;11.772;2023-08-08T00:29:08;12.50;99.90
46117;DHT22;32591;48.102;11.772;2023-08-08T00:31:35;12.60;99.90
46117;DHT22;32591;48.102;11.772;2023-08-08T00:34:02;12.50;99.90
46117;DHT22;32591;48.102;11.772;2023-08-08T00:36:30;12.60;99.90
46117;DHT22;32591;48.102;11.772;2023-08-08T00:38:57;12.50;99.90
46117;DHT22;32591;48.102;11.772;2023-08-08T00:41:25;12.50;99.90
46117;DHT22;32591;48.102;11.772;2023-08-08T00:43:52;12.50;99.90
46117;DHT22;32591;48.102;11.772;2023-08-08T00:46:21;12.50;99.90
46117;DHT22;32591;48.102;11.772;2023-08-08T00:48:50;12.50;99.90
46117;DHT22;32591;48.102;11.772;2023-08-08T00:51:18;12.50;99.90
46117;DHT22;32591;48.102;11.772;2023-08-08T00:53:46;12.40;99.90
46117;DHT22;32591;48.102;11.772;2023-08-08T00:56:14;12.40;99.90
46117;DHT22;32591;48.102;11.772;2023-08-08T00:58:44;12.50;99.90
46117;DHT22;32591;48.102;11.772;2023-08-08T01:01:12;12.50;99.90
46117;DHT22;32591;48.102;11.772;2023-08-08T01:03:39;12.40;99.90
46117;DHT22;32591;48.102;11.772;2023-08-08T01:06:11;12.40;99.90
46117;DHT22;32591;48.102;11.772;2023-08-08T01:08:45;12.40;99.90
46117;DHT22;32591;48.102;11.772;2023-08-08T01:11:15;12.50;99.90
46117;DHT22;32591;48.102;11.772;2023-08-08T01:13:45;12.50;99.90
46117;DHT22;32591;48.102;11.772;2023-08-08T01:16:13;12.40;99.90
46117;DHT22;32591;48.102;11.772;2023-08-08T01:18:41;12.40;99.90
46117;DHT22;32591;48.102;11.772;2023-08-08T01:21:09;12.30;99.90
46117;DHT22;32591;48.102;11.772;2023-08-08T01:23:43;12.30;99.90
46117;DHT22;32591;48.102;11.772;2023-08-08T01:26:14;12.30;99.90
46117;DHT22;32591;48.102;11.772;2023-08-08T01:28:42;12.30;99.90
46117;DHT22;32591;48.102;11.772;2023-08-08T01:31:10;12.30;99.90
46117;DHT22;32591;48.102;11.772;2023-08-08T01:33:37;12.20;99.90
46117;DHT22;32591;48.102;11.772;2023-08-08T01:36:10;12.20;99.90
46117;DHT22;32591;48.102;11.772;2023-08-08T01:38:42;12.30;99.90
46117;DHT22;32591;48.102;11.772;2023-08-08T01:41:10;12.20;99.90
46117;DHT22;32591;48.102;11.772;2023-08-08T01:43:39;12.30;99.90
46117;DHT22;32591;48.102;11.772;2023-08-08T01:46:08;12.30;99.90
46117;DHT22;32591;48.102;11.772;2023-08-08T01:48:34;12.30;99.90
46117;DHT22;32591;48.102;11.772;2023-08-08T01:51:02;12.30;99.90
46117;DHT22;32591;48.102;11.772;2023-08-08T01:53:29;12.40;99.90
46117;DHT22;32591;48.102;11.772;2023-08-08T01:55:56;12.40;99.90
46117;DHT22;32591;48.102;11.772;2023-08-08T01:58:23;12.40;99.90
46117;DHT22;32591;48.102;11.772;2023-08-08T02:00:52;12.30;99.90
46117;DHT22;32591;48.102;11.772;2023-08-08T02:03:19;12.40;99.90
46117;DHT22;32591;48.102;11.772;2023-08-08T02:05:46;12.30;99.90
46117;DHT22;32591;48.102;11.772;2023-08-08T02:08:13;12.40;99.90
46117;DHT22;32591;48.102;11.772;2023-08-08T02:10:40;12.40;99.90
46117;DHT22;32591;48.102;11.772;2023-08-08T02:13:07;12.30;99.90
46117;DHT22;32591;48.102;11.772;2023-08-08T02:15:34;12.30;99.90
46117;DHT22;32591;48.102;11.772;2023-08-08T02:18:03;12.30;99.90
46117;DHT22;32591;48.102;11.772;2023-08-08T02:20:31;12.20;99.90
46117;DHT22;32591;48.102;11.772;2023-08-08T02:22:58;12.20;99.90
46117;DHT22;32591;48.102;11.772;2023-08-08T02:25:25;12.10;99.90
46117;DHT22;32591;48.102;11.772;2023-08-08T02:27:52;12.10;99.90
46117;DHT22;32591;48.102;11.772;2023-08-08T02:30:19;12.00;99.90
46117;DHT22;32591;48.102;11.772;2023-08-08T02:32:47;12.00;99.90
46117;DHT22;32591;48.102;11.772;2023-08-08T02:35:15;11.90;99.90
46117;DHT22;32591;48.102;11.772;2023-08-08T02:37:42;11.90;99.90
46117;DHT22;32591;48.102;11.772;2023-08-08T02:40:10;11.90;99.90
46117;DHT22;32591;48.102;11.772;2023-08-08T02:42:37;11.80;99.90
46117;DHT22;32591;48.102;11.772;2023-08-08T02:45:06;11.80;99.90
46117;DHT22;32591;48.102;11.772;2023-08-08T02:47:32;11.70;99.90
46117;DHT22;32591;48.102;11.772;2023-08-08T02:49:59;11.70;99.90
46117;DHT22;32591;48.102;11.772;2023-08-08T02:52:29;11.70;99.90
46117;DHT22;32591;48.102;11.772;2023-08-08T02:54:56;11.60;99.90
46117;DHT22;32591;48.102;11.772;2023-08-08T02:57:23;11.60;99.90
46117;DHT22;32591;48.102;11.772;2023-08-08T02:59:50;11.60;99.90
46117;DHT22;32591;48.102;11.772;2023-08-08T03:02:17;11.50;99.90
46117;DHT22;32591;48.102;11.772;2023-08-08T03:04:44;11.50;99.90
46117;DHT22;32591;48.102;11.772;2023-08-08T03:07:11;11.40;99.90
46117;DHT22;32591;48.102;11.772;2023-08-08T03:09:40;11.40;99.90
46117;DHT22;32591;48.102;11.772;2023-08-08T03:12:08;11.40;99.90
46117;DHT22;32591;48.102;11.772;2023-08-08T03:14:35;11.40;99.90
46117;DHT22;32591;48.102;11.772;2023-08-08T03:17:02;11.40;99.90
46117;DHT22;32591;48.102;11.772;2023-08-08T03:19:30;11.40;99.90
46117;DHT22;32591;48.102;11.772;2023-08-08T03:21:57;11.40;99.90
46117;DHT22;32591;48.102;11.772;2023-08-08T03:24:24;11.30;99.90
46117;DHT22;32591;48.102;11.772;2023-08-08T03:26:52;11.30;99.90
46117;DHT22;32591;48.102;11.772;2023-08-08T03:29:20;11.30;99.90
46117;DHT22;32591;48.102;11.772;2023-08-08T03:31:47;11.30;99.90
46117;DHT22;32591;48.102;11.772;2023-08-08T03:34:14;11.20;99.90
46117;DHT22;32591;48.102;11.772;2023-08-08T03:36:41;11.30;99.90
46117;DHT22;32591;48.102;11.772;2023-08-08T03:39:08;11.20;99.90
46117;DHT22;32591;48.102;11.772;2023-08-08T03:41:36;11.30;99.90
46117;DHT22;32591;48.102;11.772;2023-08-08T03:44:04;11.30;99.90
46117;DHT22;32591;48.102;11.772;2023-08-08T03:46:31;11.30;99.90
46117;DHT22;32591;48.102;11.772;2023-08-08T03:48:59;11.30;99.90
46117;DHT22;32591;48.102;11.772;2023-08-08T03:51:26;11.40;99.90
46117;DHT22;32591;48.102;11.772;2023-08-08T03:53:53;11.30;99.90
46117;DHT22;32591;48.102;11.772;2023-08-08T03:56:20;11.40;99.90
46117;DHT22;32591;48.102;11.772;2023-08-08T03:58:47;11.30;99.90
46117;DHT22;32591;48.102;11.772;2023-08-08T04:01:15;11.40;99.90
46117;DHT22;32591;48.102;11.772;2023-08-08T04:03:42;11.40;99.90
46117;DHT22;32591;48.102;11.772;2023-08-08T04:06:09;11.40;99.90
46117;DHT22;32591;48.102;11.772;2023-08-08T04:08:36;11.50;99.90
46117;DHT22;32591;48.102;11.772;2023-08-08T04:11:03;11.50;99.90
46117;DHT22;32591;48.102;11.772;2023-08-08T04:13:30;11.50;99.90
46117;DHT22;32591;48.102;11.772;2023-08-08T04:15:56;11.50;99.90
46117;DHT22;32591;48.102;11.772;2023-08-08T04:18:25;11.60;99.90
46117;DHT22;32591;48.102;11.772;2023-08-08T04:20:52;11.70;99.90
46117;DHT22;32591;48.102;11.772;2023-08-08T04:23:19;11.70;99.90
46117;DHT22;32591;48.102;11.772;2023-08-08T04:25:48;11.70;99.90
46117;DHT22;32591;48.102;11.772;2023-08-08T04:28:15;11.70;99.90
46117;DHT22;32591;48.102;11.772;2023-08-08T04:30:42;11.70;99.90
46117;DHT22;32591;48.102;11.772;2023-08-08T04:33:09;11.80;99.90
46117;DHT22;32591;48.102;11.772;2023-08-08T04:35:37;11.80;99.90
46117;DHT22;32591;48.102;11.772;2023-08-08T04:38:04;11.80;99.90
46117;DHT22;32591;48.102;11.772;2023-08-08T04:40:31;11.80;99.90
46117;DHT22;32591;48.102;11.772;2023-08-08T04:42:58;11.80;99.90
46117;DHT22;32591;48.102;11.772;2023-08-08T04:45:25;11.90;99.90
46117;DHT22;32591;48.102;11.772;2023-08-08T04:47:52;11.90;99.90
46117;DHT22;32591;48.102;11.772;2023-08-08T04:50:19;11.90;99.90
46117;DHT22;32591;48.102;11.772;2023-08-08T04:52:47;11.90;99.90
46117;DHT22;32591;48.102;11.772;2023-08-08T04:55:14;11.90;99.90
46117;DHT22;32591;48.102;11.772;2023-08-08T04:57:42;12.00;99.90
46117;DHT22;32591;48.102;11.772;2023-08-08T05:00:09;12.00;99.90
46117;DHT22;32591;48.102;11.772;2023-08-08T05:02:37;12.10;99.90
46117;DHT22;32591;48.102;11.772;2023-08-08T05:05:07;12.10;99.90
46117;DHT22;32591;48.102;11.772;2023-08-08T05:07:35;12.20;99.90
46117;DHT22;32591;48.102;11.772;2023-08-08T05:10:05;12.30;99.90
46117;DHT22;32591;48.102;11.772;2023-08-08T05:12:33;12.30;99.90
46117;DHT22;32591;48.102;11.772;2023-08-08T05:15:00;12.30;99.90
46117;DHT22;32591;48.102;11.772;2023-08-08T05:17:26;12.30;99.90
46117;DHT22;32591;48.102;11.772;2023-08-08T05:19:53;12.30;99.90
46117;DHT22;32591;48.102;11.772;2023-08-08T05:22:20;12.40;99.90
46117;DHT22;32591;48.102;11.772;2023-08-08T05:24:47;12.40;99.90
46117;DHT22;32591;48.102;11.772;2023-08-08T05:27:15;12.40;99.90
46117;DHT22;32591;48.102;11.772;2023-08-08T05:29:42;12.50;99.90
46117;DHT22;32591;48.102;11.772;2023-08-08T05:32:09;12.50;99.90
46117;DHT22;32591;48.102;11.772;2023-08-08T05:34:36;12.40;99.90
46117;DHT22;32591;48.102;11.772;2023-08-08T05:37:04;12.50;99.90
46117;DHT22;32591;48.102;11.772;2023-08-08T05:39:31;12.50;99.90
46117;DHT22;32591;48.102;11.772;2023-08-08T05:41:58;12.50;99.90
46117;DHT22;32591;48.102;11.772;2023-08-08T05:44:26;12.50;99.90
46117;DHT22;32591;48.102;11.772;2023-08-08T05:46:53;12.50;99.90
46117;DHT22;32591;48.102;11.772;2023-08-08T05:49:20;12.50;99.90
46117;DHT22;32591;48.102;11.772;2023-08-08T05:51:47;12.60;99.90
46117;DHT22;32591;48.102;11.772;2023-08-08T05:54:14;12.60;99.90
46117;DHT22;32591;48.102;11.772;2023-08-08T05:56:41;12.80;99.90
46117;DHT22;32591;48.102;11.772;2023-08-08T05:59:08;12.80;99.90
46117;DHT22;32591;48.102;11.772;2023-08-08T06:01:36;12.80;99.90
46117;DHT22;32591;48.102;11.772;2023-08-08T06:04:03;13.00;99.90
46117;DHT22;32591;48.102;11.772;2023-08-08T06:06:30;13.10;99.90
46117;DHT22;32591;48.102;11.772;2023-08-08T06:08:57;13.20;99.90
46117;DHT22;32591;48.102;11.772;2023-08-08T06:11:24;13.30;99.90
46117;DHT22;32591;48.102;11.772;2023-08-08T06:13:51;13.40;99.90
46117;DHT22;32591;48.102;11.772;2023-08-08T06:16:20;13.40;99.90
46117;DHT22;32591;48.102;11.772;2023-08-08T06:18:48;13.50;99.90
46117;DHT22;32591;48.102;11.772;2023-08-08T06:21:16;13.50;99.90
46117;DHT22;32591;48.102;11.772;2023-08-08T06:23:42;13.70;99.90
46117;DHT22;32591;48.102;11.772;2023-08-08T06:26:09;14.10;99.90
46117;DHT22;32591;48.102;11.772;2023-08-08T06:28:36;14.10;99.90
46117;DHT22;32591;48.102;11.772;2023-08-08T06:31:03;14.10;99.90
46117;DHT22;32591;48.102;11.772;2023-08-08T06:33:30;14.20;99.90
46117;DHT22;32591;48.102;11.772;2023-08-08T06:35:59;14.20;99.90
46117;DHT22;32591;48.102;11.772;2023-08-08T06:38:25;14.20;99.90
46117;DHT22;32591;48.102;11.772;2023-08-08T06:40:52;14.30;99.90
46117;DHT22;32591;48.102;11.772;2023-08-08T06:43:21;14.30;99.90
46117;DHT22;32591;48.102;11.772;2023-08-08T06:45:48;14.40;99.90
46117;DHT22;32591;48.102;11.772;2023-08-08T06:48:15;14.40;99.90
46117;DHT22;32591;48.102;11.772;2023-08-08T06:50:42;14.50;99.90
46117;DHT22;32591;48.102;11.772;2023-08-08T06:53:11;14.60;99.90
46117;DHT22;32591;48.102;11.772;2023-08-08T06:55:38;14.70;99.90
46117;DHT22;32591;48.102;11.772;2023-08-08T06:58:04;14.70;99.90
46117;DHT22;32591;48.102;11.772;2023-08-08T07:00:31;14.80;99.90
46117;DHT22;32591;48.102;11.772;2023-08-08T07:02:58;14.90;99.90
46117;DHT22;32591;48.102;11.772;2023-08-08T07:05:25;15.00;99.90
46117;DHT22;32591;48.102;11.772;2023-08-08T07:07:52;15.10;99.90
46117;DHT22;32591;48.102;11.772;2023-08-08T07:10:21;15.10;99.90
46117;DHT22;32591;48.102;11.772;2023-08-08T07:12:48;15.30;99.90
46117;DHT22;32591;48.102;11.772;2023-08-08T07:15:15;15.30;99.90
46117;DHT22;32591;48.102;11.772;2023-08-08T07:17:42;15.40;99.90
46117;DHT22;32591;48.102;11.772;2023-08-08T07:20:10;15.40;99.90
46117;DHT22;32591;48.102;11.772;2023-08-08T07:22:39;15.40;99.90
46117;DHT22;32591;48.102;11.772;2023-08-08T07:25:07;15.50;99.90
46117;DHT22;32591;48.102;11.772;2023-08-08T07:27:36;15.50;99.90
46117;DHT22;32591;48.102;11.772;2023-08-08T07:30:04;15.40;99.90
46117;DHT22;32591;48.102;11.772;2023-08-08T07:32:32;15.50;99.90
46117;DHT22;32591;48.102;11.772;2023-08-08T07:34:59;15.50;99.90
46117;DHT22;32591;48.102;11.772;2023-08-08T07:37:30;15.60;99.90
46117;DHT22;32591;48.102;11.772;2023-08-08T07:39:57;15.70;99.90
46117;DHT22;32591;48.102;11.772;2023-08-08T07:42:24;15.80;99.90
46117;DHT22;32591;48.102;11.772;2023-08-08T07:44:53;15.80;99.90
46117;DHT22;32591;48.102;11.772;2023-08-08T07:47:20;15.90;99.90
46117;DHT22;32591;48.102;11.772;2023-08-08T07:49:47;16.00;99.90
46117;DHT22;32591;48.102;11.772;2023-08-08T07:52:13;16.10;99.90
46117;DHT22;32591;48.102;11.772;2023-08-08T07:54:40;16.20;99.90
46117;DHT22;32591;48.102;11.772;2023-08-08T07:57:08;16.20;99.90
46117;DHT22;32591;48.102;11.772;2023-08-08T07:59:36;16.20;99.90
46117;DHT22;32591;48.102;11.772;2023-08-08T08:02:05;16.30;99.90
46117;DHT22;32591;48.102;11.772;2023-08-08T08:04:33;16.50;99.90
46117;DHT22;32591;48.102;11.772;2023-08-08T08:07:01;16.60;99.90
46117;DHT22;32591;48.102;11.772;2023-08-08T08:09:28;16.70;99.90
46117;DHT22;32591;48.102;11.772;2023-08-08T08:11:55;16.80;99.90
46117;DHT22;32591;48.102;11.772;2023-08-08T08:14:22;16.90;99.90
46117;DHT22;32591;48.102;11.772;2023-08-08T08:16:50;17.00;99.90
46117;DHT22;32591;48.102;11.772;2023-08-08T08:19:19;17.00;99.90
46117;DHT22;32591;48.102;11.772;2023-08-08T08:21:46;17.10;99.90
46117;DHT22;32591;48.102;11.772;2023-08-08T08:24:13;17.20;99.90
46117;DHT22;32591;48.102;11.772;2023-08-08T08:26:40;17.20;99.90
46117;DHT22;32591;48.102;11.772;2023-08-08T08:29:07;17.20;99.90
46117;DHT22;32591;48.102;11.772;2023-08-08T08:31:34;17.30;99.90
46117;DHT22;32591;48.102;11.772;2023-08-08T08:34:03;17.40;99.90
46117;DHT22;32591;48.102;11.772;2023-08-08T08:36:31;17.30;99.90
46117;DHT22;32591;48.102;11.772;2023-08-08T08:38:58;17.40;99.90
46117;DHT22;32591;48.102;11.772;2023-08-08T08:41:27;17.50;99.90
46117;DHT22;32591;48.102;11.772;2023-08-08T08:43:54;17.80;99.90
46117;DHT22;32591;48.102;11.772;2023-08-08T08:46:22;18.00;99.90
46117;DHT22;32591;48.102;11.772;2023-08-08T08:48:54;18.00;99.90
46117;DHT22;32591;48.102;11.772;2023-08-08T08:51:22;18.20;99.90
46117;DHT22;32591;48.102;11.772;2023-08-08T08:53:50;18.40;99.90
46117;DHT22;32591;48.102;11.772;2023-08-08T08:56:18;18.60;99.70
46117;DHT22;32591;48.102;11.772;2023-08-08T08:58:45;18.70;98.70
46117;DHT22;32591;48.102;11.772;2023-08-08T09:01:13;18.60;99.10
46117;DHT22;32591;48.102;11.772;2023-08-08T09:03:43;18.60;98.50
46117;DHT22;32591;48.102;11.772;2023-08-08T09:06:11;18.70;98.40
46117;DHT22;32591;48.102;11.772;2023-08-08T09:08:38;18.80;98.70
46117;DHT22;32591;48.102;11.772;2023-08-08T09:11:07;18.90;97.90
46117;DHT22;32591;48.102;11.772;2023-08-08T09:13:36;19.00;97.50
46117;DHT22;32591;48.102;11.772;2023-08-08T09:16:04;19.00;96.90
46117;DHT22;32591;48.102;11.772;2023-08-08T09:18:32;18.80;96.80
46117;DHT22;32591;48.102;11.772;2023-08-08T09:20:59;18.70;97.10
46117;DHT22;32591;48.102;11.772;2023-08-08T09:23:26;18.60;97.30
46117;DHT22;32591;48.102;11.772;2023-08-08T09:25:54;18.70;97.00
46117;DHT22;32591;48.102;11.772;2023-08-08T09:28:22;18.70;96.30
46117;DHT22;32591;48.102;11.772;2023-08-08T09:30:49;18.50;95.80
46117;DHT22;32591;48.102;11.772;2023-08-08T09:33:17;18.60;96.20
46117;DHT22;32591;48.102;11.772;2023-08-08T09:35:44;18.80;96.40
46117;DHT22;32591;48.102;11.772;2023-08-08T09:38:11;19.00;95.90
46117;DHT22;32591;48.102;11.772;2023-08-08T09:40:39;19.10;96.40
46117;DHT22;32591;48.102;11.772;2023-08-08T09:43:07;19.30;96.50
46117;DHT22;32591;48.102;11.772;2023-08-08T09:45:39;19.40;95.80
46117;DHT22;32591;48.102;11.772;2023-08-08T09:48:08;19.50;95.50
46117;DHT22;32591;48.102;11.772;2023-08-08T09:50:35;19.80;94.70
46117;DHT22;32591;48.102;11.772;2023-08-08T09:53:03;19.90;93.60
46117;DHT22;32591;48.102;11.772;2023-08-08T09:55:30;20.00;93.90
46117;DHT22;32591;48.102;11.772;2023-08-08T09:57:58;20.00;94.80
46117;DHT22;32591;48.102;11.772;2023-08-08T10:00:26;20.10;94.90
46117;DHT22;32591;48.102;11.772;2023-08-08T10:02:57;20.10;93.50
46117;DHT22;32591;48.102;11.772;2023-08-08T10:05:26;19.80;93.20
46117;DHT22;32591;48.102;11.772;2023-08-08T10:07:54;19.70;93.70
46117;DHT22;32591;48.102;11.772;2023-08-08T10:10:22;19.80;93.00
46117;DHT22;32591;48.102;11.772;2023-08-08T10:12:49;19.60;92.60
46117;DHT22;32591;48.102;11.772;2023-08-08T10:15:16;19.40;93.20
46117;DHT22;32591;48.102;11.772;2023-08-08T10:17:43;19.20;92.90
46117;DHT22;32591;48.102;11.772;2023-08-08T10:20:12;19.00;93.30
46117;DHT22;32591;48.102;11.772;2023-08-08T10:22:44;19.10;93.40
46117;DHT22;32591;48.102;11.772;2023-08-08T10:25:18;19.40;92.40
46117;DHT22;32591;48.102;11.772;2023-08-08T10:27:46;19.50;91.80
46117;DHT22;32591;48.102;11.772;2023-08-08T10:30:13;19.70;91.90
46117;DHT22;32591;48.102;11.772;2023-08-08T10:32:42;19.80;92.20
46117;DHT22;32591;48.102;11.772;2023-08-08T10:35:13;20.00;91.50
46117;DHT22;32591;48.102;11.772;2023-08-08T10:37:40;20.20;91.20
46117;DHT22;32591;48.102;11.772;2023-08-08T10:40:18;20.30;91.50
46117;DHT22;32591;48.102;11.772;2023-08-08T10:42:46;20.50;91.50
46117;DHT22;32591;48.102;11.772;2023-08-08T10:45:15;20.60;91.80
46117;DHT22;32591;48.102;11.772;2023-08-08T10:47:43;20.60;91.20
46117;DHT22;32591;48.102;11.772;2023-08-08T10:50:14;20.60;90.60
46117;DHT22;32591;48.102;11.772;2023-08-08T10:52:53;20.80;90.90
46117;DHT22;32591;48.102;11.772;2023-08-08T10:55:22;20.50;90.60
46117;DHT22;32591;48.102;11.772;2023-08-08T10:57:55;20.20;89.80
46117;DHT22;32591;48.102;11.772;2023-08-08T11:00:26;20.10;90.00
46117;DHT22;32591;48.102;11.772;2023-08-08T11:02:55;20.30;90.10
46117;DHT22;32591;48.102;11.772;2023-08-08T11:05:24;20.40;88.90
46117;DHT22;32591;48.102;11.772;2023-08-08T11:07:52;20.50;87.80
46117;DHT22;32591;48.102;11.772;2023-08-08T11:10:20;20.70;87.50
46117;DHT22;32591;48.102;11.772;2023-08-08T11:12:57;21.00;86.90
46117;DHT22;32591;48.102;11.772;2023-08-08T11:15:25;20.90;87.20
46117;DHT22;32591;48.102;11.772;2023-08-08T11:17:53;20.80;85.80
46117;DHT22;32591;48.102;11.772;2023-08-08T11:20:23;20.70;87.50
46117;DHT22;32591;48.102;11.772;2023-08-08T11:22:51;20.60;88.50
46117;DHT22;32591;48.102;11.772;2023-08-08T11:25:19;20.80;88.20
46117;DHT22;32591;48.102;11.772;2023-08-08T11:27:50;20.90;85.80
46117;DHT22;32591;48.102;11.772;2023-08-08T11:30:18;20.90;83.60
46117;DHT22;32591;48.102;11.772;2023-08-08T11:32:47;20.80;85.60
46117;DHT22;32591;48.102;11.772;2023-08-08T11:35:16;20.90;85.70
46117;DHT22;32591;48.102;11.772;2023-08-08T11:37:46;21.00;86.00
46117;DHT22;32591;48.102;11.772;2023-08-08T11:40:14;20.80;84.50
46117;DHT22;32591;48.102;11.772;2023-08-08T11:42:41;20.50;85.10
46117;DHT22;32591;48.102;11.772;2023-08-08T11:45:11;20.50;85.00
46117;DHT22;32591;48.102;11.772;2023-08-08T11:47:39;20.50;84.20
46117;DHT22;32591;48.102;11.772;2023-08-08T11:50:08;20.50;83.90
46117;DHT22;32591;48.102;11.772;2023-08-08T11:52:40;20.60;83.70
46117;DHT22;32591;48.102;11.772;2023-08-08T11:55:09;20.60;82.80
46117;DHT22;32591;48.102;11.772;2023-08-08T11:57:37;20.80;85.30
46117;DHT22;32591;48.102;11.772;2023-08-08T12:00:06;21.10;82.90
46117;DHT22;32591;48.102;11.772;2023-08-08T12:02:35;21.10;82.70
46117;DHT22;32591;48.102;11.772;2023-08-08T12:05:05;21.20;82.70
46117;DHT22;32591;48.102;11.772;2023-08-08T12:07:32;21.40;82.60
46117;DHT22;32591;48.102;11.772;2023-08-08T12:10:00;21.80;83.10
46117;DHT22;32591;48.102;11.772;2023-08-08T12:12:28;21.80;84.50
46117;DHT22;32591;48.102;11.772;2023-08-08T12:14:58;21.70;79.90
46117;DHT22;32591;48.102;11.772;2023-08-08T12:17:26;21.70;80.20
46117;DHT22;32591;48.102;11.772;2023-08-08T12:19:53;21.60;80.40
46117;DHT22;32591;48.102;11.772;2023-08-08T12:22:21;21.50;78.50
46117;DHT22;32591;48.102;11.772;2023-08-08T12:24:48;21.30;80.60
46117;DHT22;32591;48.102;11.772;2023-08-08T12:27:15;21.00;79.00
46117;DHT22;32591;48.102;11.772;2023-08-08T12:29:44;21.00;79.10
46117;DHT22;32591;48.102;11.772;2023-08-08T12:32:11;21.10;79.30
46117;DHT22;32591;48.102;11.772;2023-08-08T12:34:38;21.30;77.50
46117;DHT22;32591;48.102;11.772;2023-08-08T12:37:05;21.40;76.30
46117;DHT22;32591;48.102;11.772;2023-08-08T12:39:32;21.30;77.30
46117;DHT22;32591;48.102;11.772;2023-08-08T12:41:59;21.30;78.80
46117;DHT22;32591;48.102;11.772;2023-08-08T12:44:25;21.50;79.40
46117;DHT22;32591;48.102;11.772;2023-08-08T12:46:54;21.70;78.30
46117;DHT22;32591;48.102;11.772;2023-08-08T12:49:21;21.70;77.20
46117;DHT22;32591;48.102;11.772;2023-08-08T12:51:50;21.80;77.50
46117;DHT22;32591;48.102;11.772;2023-08-08T12:54:17;21.80;78.10
46117;DHT22;32591;48.102;11.772;2023-08-08T12:56:44;21.70;77.60
46117;DHT22;32591;48.102;11.772;2023-08-08T12:59:11;21.80;76.40
46117;DHT22;32591;48.102;11.772;2023-08-08T13:01:38;21.90;75.50
46117;DHT22;32591;48.102;11.772;2023-08-08T13:04:06;22.20;75.00
46117;DHT22;32591;48.102;11.772;2023-08-08T13:06:33;22.20;74.80
46117;DHT22;32591;48.102;11.772;2023-08-08T13:09:00;22.30;75.60
46117;DHT22;32591;48.102;11.772;2023-08-08T13:11:28;22.30;76.10
46117;DHT22;32591;48.102;11.772;2023-08-08T13:13:55;22.50;76.00
46117;DHT22;32591;48.102;11.772;2023-08-08T13:16:23;22.70;75.60
46117;DHT22;32591;48.102;11.772;2023-08-08T13:18:50;22.80;72.40
46117;DHT22;32591;48.102;11.772;2023-08-08T13:21:18;22.70;72.60
46117;DHT22;32591;48.102;11.772;2023-08-08T13:23:45;22.60;73.50
46117;DHT22;32591;48.102;11.772;2023-08-08T13:26:12;22.50;72.00
46117;DHT22;32591;48.102;11.772;2023-08-08T13:28:39;22.50;72.60
46117;DHT22;32591;48.102;11.772;2023-08-08T13:31:06;22.60;71.90
46117;DHT22;32591;48.102;11.772;2023-08-08T13:33:33;22.80;72.70
46117;DHT22;32591;48.102;11.772;2023-08-08T13:36:01;22.80;71.30
46117;DHT22;32591;48.102;11.772;2023-08-08T13:38:29;23.00;71.60
46117;DHT22;32591;48.102;11.772;2023-08-08T13:40:56;22.90;70.60
46117;DHT22;32591;48.102;11.772;2023-08-08T13:43:25;22.50;72.10
46117;DHT22;32591;48.102;11.772;2023-08-08T13:45:52;22.80;71.50
46117;DHT22;32591;48.102;11.772;2023-08-08T13:48:19;23.00;69.60
46117;DHT22;32591;48.102;11.772;2023-08-08T13:50:46;23.10;68.60
46117;DHT22;32591;48.102;11.772;2023-08-08T13:53:13;23.10;68.80
46117;DHT22;32591;48.102;11.772;2023-08-08T13:55:42;23.10;67.80
46117;DHT22;32591;48.102;11.772;2023-08-08T13:58:10;23.00;68.30
46117;DHT22;32591;48.102;11.772;2023-08-08T14:00:37;23.00;69.90
46117;DHT22;32591;48.102;11.772;2023-08-08T14:03:04;23.00;70.70
46117;DHT22;32591;48.102;11.772;2023-08-08T14:05:31;23.00;66.20
46117;DHT22;32591;48.102;11.772;2023-08-08T14:07:58;23.00;67.60
46117;DHT22;32591;48.102;11.772;2023-08-08T14:10:25;23.20;66.90
46117;DHT22;32591;48.102;11.772;2023-08-08T14:12:53;23.10;66.60
46117;DHT22;32591;48.102;11.772;2023-08-08T14:15:21;23.20;67.20
46117;DHT22;32591;48.102;11.772;2023-08-08T14:17:48;23.00;66.20
46117;DHT22;32591;48.102;11.772;2023-08-08T14:20:15;23.10;67.80
46117;DHT22;32591;48.102;11.772;2023-08-08T14:22:44;23.30;67.60
46117;DHT22;32591;48.102;11.772;2023-08-08T14:25:12;23.40;68.10
46117;DHT22;32591;48.102;11.772;2023-08-08T14:27:39;23.20;69.00
46117;DHT22;32591;48.102;11.772;2023-08-08T14:30:08;22.80;69.30
46117;DHT22;32591;48.102;11.772;2023-08-08T14:32:35;22.70;70.40
46117;DHT22;32591;48.102;11.772;2023-08-08T14:35:03;22.60;71.10
46117;DHT22;32591;48.102;11.772;2023-08-08T14:37:30;22.70;70.20
46117;DHT22;32591;48.102;11.772;2023-08-08T14:39:58;22.80;70.70
46117;DHT22;32591;48.102;11.772;2023-08-08T14:42:24;22.50;69.10
46117;DHT22;32591;48.102;11.772;2023-08-08T14:44:51;22.50;72.50
46117;DHT22;32591;48.102;11.772;2023-08-08T14:47:20;22.80;70.70
46117;DHT22;32591;48.102;11.772;2023-08-08T14:49:47;23.10;68.10
46117;DHT22;32591;48.102;11.772;2023-08-08T14:52:16;23.20;68.50
46117;DHT22;32591;48.102;11.772;2023-08-08T14:54:43;23.20;68.50
46117;DHT22;32591;48.102;11.772;2023-08-08T14:57:10;23.10;69.90
46117;DHT22;32591;48.102;11.772;2023-08-08T14:59:37;22.80;70.00
46117;DHT22;32591;48.102;11.772;2023-08-08T15:02:04;23.00;70.20
46117;DHT22;32591;48.102;11.772;2023-08-08T15:04:33;23.20;68.50
46117;DHT22;32591;48.102;11.772;2023-08-08T15:06:59;23.40;68.40
46117;DHT22;32591;48.102;11.772;2023-08-08T15:09:27;23.40;68.80
46117;DHT22;32591;48.102;11.772;2023-08-08T15:11:54;23.70;69.60
46117;DHT22;32591;48.102;11.772;2023-08-08T15:14:21;23.90;66.90
46117;DHT22;32591;48.102;11.772;2023-08-08T15:16:49;23.60;66.70
46117;DHT22;32591;48.102;11.772;2023-08-08T15:19:16;23.40;68.40